Laguna Woods, California
Current Conditions -  °F | °C
As of 9:53 PM on Friday 28 Nov 2014 (Local Time) from KSNA Reporting Station
Clear Clear  
Wind Chill: 61°   Ceiling: Unl
Heat Index: 61°   Visibility: 10mi
Dew Point: 43°   Wind: 0mph
Humidity: 52%   Direction: NA
Pressure: 29.9"   Gusts: NA
Location:  33.61°N, 117.73°W
Report Text: KSNA 290553Z 00000KT 10SM CLR 16/06 A2990 RMK AO2 SLP123 T01610061 10233 20161 51002
Loading
Personal Weather Stations






























Interactive Weather Map New forecast layout! Learn more

10-Day Weather Forecast

Advertisements
Track Severe Weather on mobile